»·PEaware :: N481GP KGJT-KPVU

N481GP :: KGJT-KPVU

FLIGHT INFORMATION

Flight Status: Arrived
Operator: Privately registered:
United States
More flights under this callsign
Pilot: Alex K. (14822)
Aircraft: GULFSTREAM 690 COMMANDER 840/900
(AC90)
More flights by this aircraft type
Origin: KGJT Grand Junction Regl
United States
Destination: KPVU Provo Mun
United States
More flights between these airports :: More routes between these airports
Route: +MONMT2 JNC V134 FFU
File this flight plan on PilotEdge
Remarks: oofda der guy
Altitude:
(Current/Filed)
16,000ft
Speed:
(Current/Filed)
220kts
Departed: 24-Oct-19 02:59 PM
Arrived: 24-Oct-19 03:49 PM
Distance/Time
Traveled:
161nm/0:50
Distance/Time
To Go:
Arrived

Flight Plot

Page will automatically refresh every two minutes.

Flight plan parsing failed; only flown route is shown


Map Options




Map Legend


Flown Route
Filed Route
Departure Airport
Arrival Airport
Navaid (VOR, NDB)
Fix

Horizontal Profiles

Position Reports

Time Latitude Longitude Heading Altitude Ground
Speed
24-Oct-19 14:40 39.120059 -108.520987 36 4803ft 0kts
24-Oct-19 14:40 39.120059 -108.520987 36 4803ft 0kts
24-Oct-19 14:41 39.120059 -108.520987 36 4803ft 0kts
24-Oct-19 14:42 39.120059 -108.520987 36 4803ft 0kts
24-Oct-19 14:43 39.120059 -108.520987 36 4803ft 0kts
24-Oct-19 14:44 39.120059 -108.520987 36 4803ft 0kts
24-Oct-19 14:45 39.120059 -108.520987 36 4803ft 0kts
24-Oct-19 14:46 39.120059 -108.520987 36 4803ft 0kts
24-Oct-19 14:47 39.120059 -108.520987 36 4803ft 0kts
24-Oct-19 14:48 39.120059 -108.520987 36 4803ft 0kts
24-Oct-19 14:49 39.120059 -108.520987 36 4803ft 0kts
24-Oct-19 14:50 39.120059 -108.520987 36 4803ft 0kts
24-Oct-19 14:51 39.120059 -108.520987 36 4803ft 0kts
24-Oct-19 14:52 39.120059 -108.520987 36 4803ft 0kts
24-Oct-19 14:53 39.120059 -108.520987 36 4803ft 0kts
24-Oct-19 14:54 39.120059 -108.520987 36 4803ft 0kts
24-Oct-19 14:55 39.120733 -108.521717 334 4803ft 12kts
24-Oct-19 14:56 39.118631 -108.517023 124 4802ft 13kts
24-Oct-19 14:57 39.118197 -108.516246 125 4803ft 2kts
24-Oct-19 14:58 39.125126 -108.526065 307 4890ft 140kts
24-Oct-19 14:59 39.147808 -108.574540 299 7170ft 162kts
24-Oct-19 15:00 39.134190 -108.630695 242 9542ft 177kts
24-Oct-19 15:01 39.109076 -108.685547 241 11998ft 182kts
24-Oct-19 15:02 39.082861 -108.742330 241 14351ft 188kts
24-Oct-19 15:03 39.065801 -108.803618 284 16486ft 188kts
24-Oct-19 15:04 39.081738 -108.868639 291 18371ft 194kts
24-Oct-19 15:05 39.100432 -108.934888 291 19989ft 201kts
24-Oct-19 15:06 39.120072 -109.003459 291 21446ft 204kts
24-Oct-19 15:07 39.140113 -109.073789 291 22374ft 225kts
24-Oct-19 15:08 39.163403 -109.155809 291 22400ft 256kts
24-Oct-19 15:09 39.188592 -109.244707 291 22390ft 268kts
24-Oct-19 15:10 39.214425 -109.336208 290 22389ft 271kts
24-Oct-19 15:11 39.240299 -109.428108 291 22375ft 273kts
24-Oct-19 15:12 39.266304 -109.520784 290 22379ft 272kts
24-Oct-19 15:13 39.292174 -109.613339 291 22372ft 273kts
24-Oct-19 15:14 39.318073 -109.706433 290 22380ft 273kts
24-Oct-19 15:15 39.343888 -109.799390 290 22379ft 273kts
24-Oct-19 15:16 39.369591 -109.892477 290 22384ft 274kts
24-Oct-19 15:17 39.395298 -109.985846 290 22365ft 275kts
24-Oct-19 15:18 39.420867 -110.079073 290 22383ft 274kts
24-Oct-19 15:19 39.446547 -110.173118 290 22383ft 276kts
24-Oct-19 15:20 39.472256 -110.267298 290 22379ft 276kts
24-Oct-19 15:21 39.497752 -110.361218 290 22377ft 276kts
24-Oct-19 15:22 39.523180 -110.455389 289 22359ft 277kts
24-Oct-19 15:23 39.548709 -110.550073 290 22367ft 276kts
24-Oct-19 15:24 39.574031 -110.644542 290 22359ft 277kts
24-Oct-19 15:25 39.599318 -110.739056 290 22374ft 276kts
24-Oct-19 15:26 39.642251 -110.821224 306 22356ft 275kts
24-Oct-19 15:27 39.688187 -110.901295 307 22360ft 275kts
24-Oct-19 15:28 39.733933 -110.981110 307 22367ft 274kts
24-Oct-19 15:29 39.779580 -111.060950 307 22381ft 274kts
24-Oct-19 15:30 39.825243 -111.141021 307 22384ft 275kts
24-Oct-19 15:31 39.871646 -111.222578 307 21679ft 283kts
24-Oct-19 15:32 39.918493 -111.305127 307 20746ft 284kts
24-Oct-19 15:33 39.965453 -111.388159 307 19814ft 284kts
24-Oct-19 15:34 40.012120 -111.470832 307 18908ft 279kts
24-Oct-19 15:35 40.058542 -111.553298 307 17586ft 284kts
24-Oct-19 15:36 40.104784 -111.635683 307 16619ft 267kts
24-Oct-19 15:37 40.147393 -111.711776 306 15533ft 247kts
24-Oct-19 15:38 40.188584 -111.785534 306 14128ft 248kts
24-Oct-19 15:39 40.228844 -111.857690 306 13051ft 244kts
24-Oct-19 15:40 40.268416 -111.928847 306 12090ft 240kts
24-Oct-19 15:41 40.322029 -111.975915 348 11043ft 221kts
24-Oct-19 15:42 40.374974 -111.944050 40 9787ft 210kts
24-Oct-19 15:43 40.368997 -111.876606 117 8540ft 214kts
24-Oct-19 15:44 40.327543 -111.818762 146 6859ft 217kts
24-Oct-19 15:45 40.287096 -111.783073 145 5797ft 131kts
24-Oct-19 15:46 40.258994 -111.757964 145 5225ft 131kts
24-Oct-19 15:47 40.229948 -111.732198 145 4523ft 105kts
24-Oct-19 15:48 40.222750 -111.724593 55 4491ft 13kts
24-Oct-19 15:49 40.219589 -111.720776 151 4491ft 14kts
24-Oct-19 15:50 40.219190 -111.719894 85 4491ft 0kts
24-Oct-19 15:51 40.219190 -111.719894 85 4491ft 0kts
24-Oct-19 15:52 40.219190 -111.719894 85 4491ft 0kts
24-Oct-19 15:53 40.219190 -111.719894 85 4491ft 0kts
24-Oct-19 15:54 40.219190 -111.719894 85 4491ft 0kts
24-Oct-19 15:55 40.219190 -111.719894 85 4491ft 0kts
24-Oct-19 15:56 40.219190 -111.719894 85 4491ft 0kts
24-Oct-19 15:57 40.219190 -111.719894 85 4491ft 0kts
24-Oct-19 15:58 40.219190 -111.719894 85 4491ft 0kts

Navigation Log

Ident Type
Flight plan parsing failed, navigation log unavailable